Cranberry, North Carolina
Current Conditions -  °F | °C
As of 4:15 PM on Friday 24 Oct 2014 (Local Time) from KTNB Reporting Station
Clear Clear  
Wind Chill: 17°   Ceiling: Unl
Heat Index: 17°   Visibility: 10mi
Dew Point: -4°   Wind: 9mph
Humidity: 25%   Direction: 290°WNW
Pressure: 30.04"   Gusts: NA
Location:  36.1731°N, 81.9572°W
Report Text: KTNB 242015Z AUTO 29008KT 10SM CLR 17/M04 A3004 RMK AO2 T01661036
Loading
Personal Weather Stations






























Interactive Weather Map
Tropical Storm Tracking
New forecast layout! Learn more

10-Day Weather Forecast

Advertisements
Track Severe Weather on mobile